createdAt,value
2023-04-19T00:02:19.255Z,10.62
2023-04-19T00:04:47.436Z,10.62
2023-04-19T00:07:14.234Z,10.64
2023-04-19T00:09:43.403Z,10.63
2023-04-19T00:12:11.180Z,10.67
2023-04-19T00:14:38.017Z,10.67
2023-04-19T00:17:07.531Z,10.64
2023-04-19T00:19:34.647Z,10.61
2023-04-19T00:22:03.537Z,10.61
2023-04-19T00:24:30.991Z,10.60
2023-04-19T00:26:59.276Z,10.56
2023-04-19T00:29:26.302Z,10.53
2023-04-19T00:31:53.209Z,10.54
2023-04-19T00:34:20.160Z,10.52
2023-04-19T00:36:48.341Z,10.49
2023-04-19T00:39:15.546Z,10.46
2023-04-19T00:41:42.789Z,10.44
2023-04-19T00:44:09.609Z,10.42
2023-04-19T00:46:41.833Z,10.42
2023-04-19T00:49:10.057Z,10.44
2023-04-19T00:51:37.453Z,10.43
2023-04-19T00:54:04.740Z,10.43
2023-04-19T00:56:35.835Z,10.33
2023-04-19T00:59:02.817Z,10.32
2023-04-19T01:01:30.204Z,10.32
2023-04-19T01:03:57.395Z,10.29
2023-04-19T01:06:24.534Z,10.24
2023-04-19T01:08:51.401Z,10.26
2023-04-19T01:11:18.260Z,10.27
2023-04-19T01:13:45.176Z,10.25
2023-04-19T01:16:12.454Z,10.27
2023-04-19T01:18:40.598Z,10.24
2023-04-19T01:21:11.774Z,10.24
2023-04-19T01:23:39.440Z,10.27
2023-04-19T01:26:07.415Z,10.22
2023-04-19T01:28:34.298Z,10.17
2023-04-19T01:31:01.113Z,10.15
2023-04-19T01:33:28.058Z,10.12
2023-04-19T01:35:54.942Z,10.08
2023-04-19T01:38:21.763Z,10.06
2023-04-19T01:40:48.517Z,10.02
2023-04-19T01:43:18.878Z,10.03
2023-04-19T01:45:46.127Z,10.07
2023-04-19T01:48:12.926Z,10.00
2023-04-19T01:50:39.685Z,10.00
2023-04-19T01:53:06.655Z,10.01
2023-04-19T01:55:33.435Z,10.06
2023-04-19T01:58:00.704Z,10.07
2023-04-19T02:00:27.699Z,10.07
2023-04-19T02:02:54.647Z,10.05
2023-04-19T02:05:21.856Z,10.06
2023-04-19T02:07:48.687Z,10.04
2023-04-19T02:10:15.602Z,10.05
2023-04-19T02:12:42.948Z,10.05
2023-04-19T02:15:10.364Z,10.04
2023-04-19T02:17:37.252Z,9.98
2023-04-19T02:20:09.067Z,9.99
2023-04-19T02:22:35.849Z,10.00
2023-04-19T02:25:02.882Z,10.00
2023-04-19T02:27:32.322Z,10.00
2023-04-19T02:30:01.913Z,9.95
2023-04-19T02:32:31.973Z,9.92
2023-04-19T02:34:58.842Z,9.93
2023-04-19T02:37:25.618Z,9.93
2023-04-19T02:39:52.380Z,9.93
2023-04-19T02:42:19.373Z,9.92
2023-04-19T02:44:46.326Z,9.95
2023-04-19T02:47:18.516Z,9.94
2023-04-19T02:49:45.570Z,9.91
2023-04-19T02:52:12.466Z,9.93
2023-04-19T02:54:39.333Z,9.97
2023-04-19T02:57:06.340Z,9.96
2023-04-19T02:59:33.161Z,9.97
2023-04-19T03:02:00.123Z,9.87
2023-04-19T03:04:28.940Z,9.87
2023-04-19T03:06:55.777Z,9.90
2023-04-19T03:09:22.635Z,9.90
2023-04-19T03:11:49.453Z,9.85
2023-04-19T03:14:16.686Z,9.82
2023-04-19T03:16:43.699Z,9.79
2023-04-19T03:19:10.753Z,9.84
2023-04-19T03:21:37.903Z,9.83
2023-04-19T03:24:07.865Z,9.79
2023-04-19T03:26:34.722Z,9.85
2023-04-19T03:29:01.512Z,9.87
2023-04-19T03:31:28.446Z,9.89
2023-04-19T03:33:58.270Z,9.87
2023-04-19T03:36:25.084Z,9.87
2023-04-19T03:38:52.100Z,9.87
2023-04-19T03:41:27.109Z,9.88
2023-04-19T03:43:54.180Z,9.84
2023-04-19T03:46:21.322Z,9.82
2023-04-19T03:48:48.228Z,9.85
2023-04-19T03:51:20.884Z,9.83
2023-04-19T03:53:50.204Z,9.84
2023-04-19T03:56:16.987Z,9.83
2023-04-19T03:58:43.771Z,9.82
2023-04-19T04:01:19.298Z,9.80
2023-04-19T04:03:46.406Z,9.80
2023-04-19T04:06:13.513Z,9.77
2023-04-19T04:08:41.896Z,9.74
2023-04-19T04:11:08.920Z,9.71
2023-04-19T04:13:35.690Z,9.73
2023-04-19T04:16:02.564Z,9.75
2023-04-19T04:18:29.373Z,9.79
2023-04-19T04:20:56.290Z,9.82
2023-04-19T04:23:23.703Z,9.77
2023-04-19T04:26:01.121Z,9.74
2023-04-19T04:28:31.189Z,9.75
2023-04-19T04:31:00.169Z,9.73
2023-04-19T04:33:28.579Z,9.73
2023-04-19T04:35:57.794Z,9.71
2023-04-19T04:38:25.594Z,9.73
2023-04-19T04:40:54.817Z,9.75
2023-04-19T04:43:29.177Z,9.74
2023-04-19T04:45:57.821Z,9.73
2023-04-19T04:48:25.532Z,9.72
2023-04-19T04:50:52.352Z,9.71
2023-04-19T04:53:19.374Z,9.65
2023-04-19T04:55:46.256Z,9.68
2023-04-19T04:58:13.060Z,9.69
2023-04-19T05:00:39.902Z,9.68
2023-04-19T05:03:06.883Z,9.68
2023-04-19T05:05:33.943Z,9.71
2023-04-19T05:08:01.123Z,9.71
2023-04-19T05:10:28.312Z,9.69
2023-04-19T05:12:55.370Z,9.73
2023-04-19T05:15:22.386Z,9.74
2023-04-19T05:17:49.322Z,9.78
2023-04-19T05:20:16.368Z,9.76
2023-04-19T05:22:43.165Z,9.77
2023-04-19T05:25:10.791Z,9.83
2023-04-19T05:27:37.742Z,9.83
2023-04-19T05:30:06.581Z,9.84
2023-04-19T05:32:33.583Z,9.91
2023-04-19T05:35:00.372Z,9.95
2023-04-19T05:37:27.239Z,9.99
2023-04-19T05:39:54.302Z,9.98
2023-04-19T05:42:21.140Z,10.02
2023-04-19T05:44:47.980Z,9.98
2023-04-19T05:47:15.048Z,9.92
2023-04-19T05:49:43.221Z,9.89
2023-04-19T05:52:10.281Z,9.91
2023-04-19T05:54:37.481Z,9.95
2023-04-19T05:57:04.730Z,10.00
2023-04-19T05:59:31.618Z,9.97
2023-04-19T06:01:58.778Z,9.99
2023-04-19T06:04:25.964Z,9.98
2023-04-19T06:06:52.857Z,9.99
2023-04-19T06:09:19.682Z,10.07
2023-04-19T06:11:50.680Z,10.10
2023-04-19T06:14:19.115Z,10.07
2023-04-19T06:16:46.568Z,10.10
2023-04-19T06:19:14.290Z,10.15
2023-04-19T06:21:41.112Z,10.19
2023-04-19T06:24:08.218Z,10.16
2023-04-19T06:26:35.227Z,10.15
2023-04-19T06:29:02.141Z,10.20
2023-04-19T06:31:29.137Z,10.24
2023-04-19T06:33:56.083Z,10.31
2023-04-19T06:36:22.848Z,10.37
2023-04-19T06:38:50.334Z,10.34
2023-04-19T06:41:17.934Z,10.41
2023-04-19T06:43:45.051Z,10.47
2023-04-19T06:46:14.419Z,10.55
2023-04-19T06:48:41.821Z,10.58
2023-04-19T06:51:09.173Z,10.53
2023-04-19T06:53:36.605Z,10.59
2023-04-19T06:56:04.807Z,10.67
2023-04-19T06:58:34.557Z,10.78
2023-04-19T07:01:04.397Z,10.77
2023-04-19T07:03:31.947Z,10.82
2023-04-19T07:05:59.128Z,10.89
2023-04-19T07:08:34.918Z,10.95
2023-04-19T07:11:09.869Z,10.97
2023-04-19T07:13:39.412Z,11.01
2023-04-19T07:16:07.493Z,11.12
2023-04-19T07:18:34.432Z,11.12
2023-04-19T07:21:01.368Z,11.15
2023-04-19T07:23:28.166Z,11.24
2023-04-19T07:25:54.978Z,11.32
2023-04-19T07:28:21.867Z,11.36
2023-04-19T07:30:48.604Z,11.38
2023-04-19T07:33:15.818Z,11.43
2023-04-19T07:35:45.170Z,11.53
2023-04-19T07:38:12.999Z,11.62
2023-04-19T07:40:40.103Z,11.83
2023-04-19T07:43:06.970Z,12.04
2023-04-19T07:45:33.915Z,12.11
2023-04-19T07:48:00.744Z,12.21
2023-04-19T07:50:28.009Z,12.21
2023-04-19T07:52:55.133Z,12.15
2023-04-19T07:55:22.397Z,12.32
2023-04-19T07:57:50.388Z,12.50
2023-04-19T08:00:18.748Z,12.76
2023-04-19T08:02:47.583Z,13.08
2023-04-19T08:05:17.445Z,13.31
2023-04-19T08:07:45.724Z,13.21
2023-04-19T08:10:13.072Z,13.17
2023-04-19T08:12:50.338Z,13.12
2023-04-19T08:17:58.135Z,13.00
2023-04-19T08:20:25.620Z,12.99
2023-04-19T08:22:54.133Z,13.22
2023-04-19T08:25:21.339Z,13.37
2023-04-19T08:27:48.078Z,13.46
2023-04-19T08:30:17.765Z,13.60
2023-04-19T08:32:44.880Z,13.81
2023-04-19T08:35:12.320Z,14.19
2023-04-19T08:37:39.672Z,14.56
2023-04-19T08:40:09.855Z,14.40
2023-04-19T08:42:37.343Z,14.40
2023-04-19T08:47:51.792Z,13.98
2023-04-19T08:50:33.429Z,14.04
2023-04-19T08:53:16.322Z,13.94
2023-04-19T08:56:08.796Z,14.01
2023-04-19T08:58:54.892Z,14.68
2023-04-19T09:04:02.657Z,15.38
2023-04-19T09:06:41.601Z,15.22
2023-04-19T09:11:59.933Z,14.66
2023-04-19T09:14:29.077Z,14.47
2023-04-19T09:17:16.456Z,14.27
2023-04-19T09:19:50.416Z,14.12
2023-04-19T09:22:19.060Z,14.02
2023-04-19T09:25:22.617Z,13.91
2023-04-19T09:27:37.166Z,13.78
2023-04-19T09:30:06.524Z,13.68
2023-04-19T09:32:48.416Z,13.63
2023-04-19T09:35:15.962Z,13.63
2023-04-19T09:40:25.733Z,13.69
2023-04-19T09:48:09.702Z,14.33
2023-04-19T09:50:57.359Z,14.65
2023-04-19T09:53:29.012Z,14.73
2023-04-19T09:56:01.220Z,14.65
2023-04-19T09:58:37.686Z,14.45
2023-04-19T10:01:16.900Z,14.16
2023-04-19T10:03:50.724Z,13.97
2023-04-19T10:08:53.930Z,13.68
2023-04-19T10:11:36.362Z,13.69
2023-04-19T10:14:08.717Z,13.71
2023-04-19T10:16:38.414Z,13.67
2023-04-19T10:19:10.480Z,13.69
2023-04-19T10:21:39.781Z,13.75
2023-04-19T10:24:08.228Z,13.71
2023-04-19T10:27:03.167Z,13.64
2023-04-19T10:29:51.755Z,13.56
2023-04-19T10:32:18.747Z,13.35
2023-04-19T10:34:47.055Z,13.27
2023-04-19T10:37:17.276Z,13.22
2023-04-19T10:39:45.899Z,13.20
2023-04-19T10:42:13.122Z,13.20
2023-04-19T10:44:40.313Z,13.16
2023-04-19T10:47:08.191Z,13.17
2023-04-19T10:49:46.922Z,13.19
2023-04-19T10:52:31.829Z,13.23
2023-04-19T10:54:58.684Z,13.13
2023-04-19T10:57:27.021Z,13.05
2023-04-19T11:00:25.653Z,13.11
2023-04-19T11:02:52.803Z,13.15
2023-04-19T11:05:20.350Z,13.16
2023-04-19T11:07:47.241Z,13.12
2023-04-19T11:10:30.929Z,13.09
2023-04-19T11:13:00.881Z,13.16
2023-04-19T11:15:27.988Z,13.28
2023-04-19T11:18:08.710Z,13.22
2023-04-19T11:20:38.902Z,13.21
2023-04-19T11:23:17.838Z,13.18
2023-04-19T11:25:46.468Z,13.11
2023-04-19T11:28:17.476Z,13.06
2023-04-19T11:30:44.611Z,13.02
2023-04-19T11:33:13.024Z,12.98
2023-04-19T11:35:41.375Z,12.98
2023-04-19T11:38:08.204Z,12.94
2023-04-19T11:40:37.387Z,12.90
2023-04-19T11:43:05.078Z,12.81
2023-04-19T11:45:39.488Z,12.75
2023-04-19T11:48:15.292Z,12.75
2023-04-19T11:50:46.630Z,12.69
2023-04-19T11:53:21.153Z,12.65
2023-04-19T11:55:57.584Z,12.66
2023-04-19T11:58:33.568Z,12.58
2023-04-19T12:01:06.842Z,12.54
2023-04-19T12:03:53.814Z,12.53
2023-04-19T12:06:34.738Z,12.49
2023-04-19T12:09:11.650Z,12.47
2023-04-19T12:11:50.055Z,12.45
2023-04-19T12:14:21.456Z,12.44
2023-04-19T12:17:11.912Z,12.38
2023-04-19T12:19:44.805Z,12.28
2023-04-19T12:22:22.094Z,12.11
2023-04-19T12:24:53.258Z,12.01
2023-04-19T12:27:19.973Z,11.94
2023-04-19T12:29:46.940Z,11.82
2023-04-19T12:32:15.764Z,11.78
2023-04-19T12:34:42.793Z,11.67
2023-04-19T12:37:09.574Z,11.62
2023-04-19T12:39:36.380Z,11.60
2023-04-19T12:42:04.082Z,11.54
2023-04-19T12:44:30.864Z,11.56
2023-04-19T12:47:00.728Z,11.55
2023-04-19T12:49:27.547Z,11.47
2023-04-19T12:51:57.031Z,11.44
2023-04-19T12:54:24.344Z,11.34
2023-04-19T12:56:51.444Z,11.26
2023-04-19T12:59:18.941Z,11.21
2023-04-19T13:01:46.054Z,11.21
2023-04-19T13:04:16.242Z,11.25
2023-04-19T13:06:43.619Z,11.19
2023-04-19T13:09:14.856Z,11.15
2023-04-19T13:11:42.360Z,11.10
2023-04-19T13:14:09.203Z,10.94
2023-04-19T13:16:36.078Z,10.82
2023-04-19T13:19:02.997Z,10.81
2023-04-19T13:21:29.860Z,10.83
2023-04-19T13:23:59.184Z,10.88
2023-04-19T13:26:26.495Z,10.87
2023-04-19T13:28:53.415Z,10.82
2023-04-19T13:31:20.221Z,10.72
2023-04-19T13:33:50.020Z,10.64
2023-04-19T13:36:17.024Z,10.49
2023-04-19T13:38:44.365Z,10.51
2023-04-19T13:41:11.589Z,10.59
2023-04-19T13:43:38.667Z,10.59
2023-04-19T13:46:06.595Z,10.64
2023-04-19T13:48:33.400Z,10.61
2023-04-19T13:51:00.770Z,10.69
2023-04-19T13:53:29.194Z,10.76
2023-04-19T13:55:57.335Z,10.76
2023-04-19T13:58:27.301Z,10.73
2023-04-19T14:01:02.729Z,10.70
2023-04-19T14:03:31.518Z,10.69
2023-04-19T14:05:59.227Z,10.75
2023-04-19T14:08:26.213Z,10.77
2023-04-19T14:10:53.045Z,10.75
2023-04-19T14:13:19.869Z,10.71
2023-04-19T14:15:46.784Z,10.71
2023-04-19T14:18:13.601Z,10.71
2023-04-19T14:20:40.489Z,10.73
2023-04-19T14:23:07.433Z,10.72
2023-04-19T14:25:34.300Z,10.67
2023-04-19T14:28:01.117Z,10.74
2023-04-19T14:30:28.852Z,10.70
2023-04-19T14:32:57.483Z,10.73
2023-04-19T14:35:27.482Z,10.87
2023-04-19T14:37:54.260Z,11.06
2023-04-19T14:40:21.251Z,11.22
2023-04-19T14:42:48.215Z,11.39
2023-04-19T14:45:15.339Z,11.36
2023-04-19T14:47:44.662Z,11.29
2023-04-19T14:50:11.913Z,11.29
2023-04-19T14:52:38.644Z,11.35
2023-04-19T14:55:06.667Z,11.39
2023-04-19T14:57:36.528Z,11.53
2023-04-19T15:00:03.816Z,11.67
2023-04-19T15:02:30.995Z,11.47
2023-04-19T15:04:58.231Z,11.45
2023-04-19T15:07:26.159Z,11.39
2023-04-19T15:09:53.046Z,11.51
2023-04-19T15:12:19.880Z,11.52
2023-04-19T15:14:48.029Z,11.69
2023-04-19T15:17:14.931Z,11.83
2023-04-19T15:19:41.792Z,11.89
2023-04-19T15:22:09.102Z,11.88
2023-04-19T15:24:35.947Z,11.92
2023-04-19T15:27:02.890Z,11.87
2023-04-19T15:29:30.127Z,11.85
2023-04-19T15:31:57.148Z,11.69
2023-04-19T15:34:25.723Z,11.69
2023-04-19T15:36:54.233Z,11.71
2023-04-19T15:39:21.224Z,11.71
2023-04-19T15:41:48.024Z,11.71
2023-04-19T15:44:17.996Z,11.78
2023-04-19T15:46:44.880Z,11.83
2023-04-19T15:49:12.758Z,11.84
2023-04-19T15:51:39.541Z,11.83
2023-04-19T15:54:07.160Z,11.92
2023-04-19T15:56:34.075Z,11.87
2023-04-19T15:59:01.149Z,11.81
2023-04-19T16:01:28.329Z,11.83
2023-04-19T16:03:56.773Z,11.76
2023-04-19T16:06:24.087Z,11.78
2023-04-19T16:08:51.069Z,11.78
2023-04-19T16:11:17.978Z,11.78
2023-04-19T16:13:44.881Z,11.74
2023-04-19T16:16:12.107Z,11.78
2023-04-19T16:18:38.920Z,11.97
2023-04-19T16:21:06.052Z,12.00
2023-04-19T16:23:32.970Z,11.96
2023-04-19T16:25:59.865Z,11.98
2023-04-19T16:28:26.734Z,11.94
2023-04-19T16:30:53.655Z,11.89
2023-04-19T16:33:21.901Z,11.88
2023-04-19T16:35:48.799Z,11.89
2023-04-19T16:38:15.633Z,11.86
2023-04-19T16:40:47.785Z,11.80
2023-04-19T16:43:14.674Z,11.74
2023-04-19T16:45:42.987Z,11.76
2023-04-19T16:48:10.737Z,11.75
2023-04-19T16:50:37.811Z,11.68
2023-04-19T16:53:06.190Z,11.66
2023-04-19T16:55:33.178Z,11.65
2023-04-19T16:58:00.053Z,11.64
2023-04-19T17:00:26.999Z,11.67
2023-04-19T17:02:53.900Z,11.66
2023-04-19T17:05:20.957Z,11.64
2023-04-19T17:07:47.955Z,11.64
2023-04-19T17:10:14.748Z,11.63
2023-04-19T17:12:41.704Z,11.59
2023-04-19T17:15:09.551Z,11.56
2023-04-19T17:17:36.521Z,11.53
2023-04-19T17:20:05.912Z,11.49
2023-04-19T17:22:33.989Z,11.49
2023-04-19T17:25:02.258Z,11.52
2023-04-19T17:27:29.243Z,11.52
2023-04-19T17:29:56.110Z,11.53
2023-04-19T17:32:22.964Z,11.53
2023-04-19T17:34:49.807Z,11.53
2023-04-19T17:37:16.647Z,11.49
2023-04-19T17:39:43.573Z,11.53
2023-04-19T17:42:10.357Z,11.54
2023-04-19T17:44:37.152Z,11.51
2023-04-19T17:47:04.901Z,11.50
2023-04-19T17:49:32.775Z,11.48
2023-04-19T17:51:59.873Z,11.47
2023-04-19T17:54:26.958Z,11.40
2023-04-19T17:56:54.256Z,11.34
2023-04-19T17:59:21.204Z,11.34
2023-04-19T18:01:48.069Z,11.34
2023-04-19T18:04:17.843Z,11.35
2023-04-19T18:06:46.352Z,11.34
2023-04-19T18:09:14.110Z,11.30
2023-04-19T18:11:41.067Z,11.25
2023-04-19T18:14:08.186Z,11.21
2023-04-19T18:16:35.280Z,11.20
2023-04-19T18:19:02.503Z,11.19
2023-04-19T18:21:29.360Z,11.18
2023-04-19T18:23:58.796Z,11.14
2023-04-19T18:26:25.733Z,11.07
2023-04-19T18:28:52.553Z,11.07
2023-04-19T18:31:22.419Z,11.02
2023-04-19T18:33:49.273Z,10.99
2023-04-19T18:36:16.253Z,10.96
2023-04-19T18:38:43.073Z,10.92
2023-04-19T18:41:09.954Z,10.87
2023-04-19T18:43:39.443Z,10.81
2023-04-19T18:46:06.733Z,10.75
2023-04-19T18:48:34.292Z,10.73
2023-04-19T18:51:01.372Z,10.72
2023-04-19T18:53:29.703Z,10.70
2023-04-19T18:55:57.916Z,10.66
2023-04-19T18:58:27.192Z,10.64
2023-04-19T19:00:55.766Z,10.58
2023-04-19T19:06:01.656Z,10.46
2023-04-19T19:08:30.483Z,10.42
2023-04-19T19:11:18.333Z,10.39
2023-04-19T19:13:45.027Z,10.30
2023-04-19T19:16:11.981Z,10.24
2023-04-19T19:18:38.904Z,10.19
2023-04-19T19:21:10.919Z,10.13
2023-04-19T19:23:42.270Z,10.13
2023-04-19T19:26:13.058Z,10.08
2023-04-19T19:28:40.321Z,10.02
2023-04-19T19:31:10.195Z,10.00
2023-04-19T19:33:40.526Z,9.97
2023-04-19T19:36:07.848Z,9.95
2023-04-19T19:38:38.045Z,9.90
2023-04-19T19:41:49.054Z,9.83
2023-04-19T19:43:54.897Z,9.77
2023-04-19T19:46:22.800Z,9.72
2023-04-19T19:48:53.546Z,9.74
2023-04-19T19:51:52.236Z,9.65
2023-04-19T19:54:10.944Z,9.64
2023-04-19T19:56:44.736Z,9.54
2023-04-19T19:59:29.634Z,9.47
2023-04-19T20:01:57.505Z,9.46
2023-04-19T20:04:24.597Z,9.41
2023-04-19T20:09:22.086Z,9.22
2023-04-19T20:11:48.901Z,9.09
2023-04-19T20:14:16.380Z,9.05
2023-04-19T20:16:43.382Z,9.02
2023-04-19T20:19:11.839Z,8.92
2023-04-19T20:21:41.291Z,8.76
2023-04-19T20:24:08.516Z,8.72
2023-04-19T20:26:35.638Z,8.67
2023-04-19T20:29:02.465Z,8.51
2023-04-19T20:31:29.634Z,8.43
2023-04-19T20:33:56.828Z,8.39
2023-04-19T20:36:24.714Z,8.34
2023-04-19T20:38:51.996Z,8.30
2023-04-19T20:41:19.584Z,8.31
2023-04-19T20:43:49.041Z,8.23
2023-04-19T20:46:16.804Z,8.05
2023-04-19T20:48:43.836Z,7.86
2023-04-19T20:51:12.650Z,7.69
2023-04-19T20:53:39.610Z,7.62
2023-04-19T20:56:06.501Z,7.64
2023-04-19T20:58:34.614Z,7.53
2023-04-19T21:01:01.458Z,7.39
2023-04-19T21:03:28.550Z,7.45
2023-04-19T21:05:55.595Z,7.41
2023-04-19T21:08:23.913Z,7.32
2023-04-19T21:10:50.730Z,7.26
2023-04-19T21:13:17.478Z,7.18
2023-04-19T21:15:46.852Z,7.07
2023-04-19T21:18:13.698Z,7.11
2023-04-19T21:20:40.694Z,6.97
2023-04-19T21:23:07.549Z,6.82
2023-04-19T21:25:34.586Z,6.77
2023-04-19T21:28:01.370Z,6.83
2023-04-19T21:30:28.305Z,6.87
2023-04-19T21:32:56.709Z,6.82
2023-04-19T21:35:23.575Z,6.86
2023-04-19T21:37:52.885Z,6.71
2023-04-19T21:40:19.814Z,6.54
2023-04-19T21:42:46.819Z,6.45
2023-04-19T21:45:13.759Z,6.37
2023-04-19T21:47:40.715Z,6.30
2023-04-19T21:50:08.620Z,6.20
2023-04-19T21:52:35.905Z,6.11
2023-04-19T21:55:03.327Z,6.12
2023-04-19T21:57:30.994Z,6.05
2023-04-19T21:59:58.001Z,6.01
2023-04-19T22:02:24.926Z,6.11
2023-04-19T22:04:53.992Z,6.18
2023-04-19T22:07:23.863Z,6.11
2023-04-19T22:09:54.196Z,5.92
2023-04-19T22:12:27.607Z,5.78
2023-04-19T22:14:54.519Z,5.79
2023-04-19T22:17:21.793Z,5.64
2023-04-19T22:19:48.806Z,5.66
2023-04-19T22:22:15.869Z,5.79
2023-04-19T22:24:56.920Z,5.81
2023-04-19T22:27:25.635Z,5.61
2023-04-19T22:29:52.822Z,5.51
2023-04-19T22:32:19.700Z,5.44
2023-04-19T22:34:55.315Z,5.46
2023-04-19T22:37:22.922Z,5.44
2023-04-19T22:39:49.824Z,5.40
2023-04-19T22:42:16.948Z,5.40
2023-04-19T22:44:44.019Z,5.27
2023-04-19T22:47:11.841Z,5.20
2023-04-19T22:49:43.006Z,5.15
2023-04-19T22:52:11.823Z,5.20
2023-04-19T22:54:41.684Z,5.29
2023-04-19T22:57:10.173Z,5.29
2023-04-19T22:59:37.497Z,5.30
2023-04-19T23:02:04.430Z,5.25
2023-04-19T23:04:35.974Z,5.32
2023-04-19T23:07:03.836Z,5.19
2023-04-19T23:09:33.562Z,5.13
2023-04-19T23:12:00.699Z,5.18
2023-04-19T23:14:28.377Z,5.14
2023-04-19T23:16:57.153Z,5.11
2023-04-19T23:19:25.233Z,5.14
2023-04-19T23:21:52.066Z,5.09
2023-04-19T23:24:19.953Z,5.12
2023-04-19T23:26:48.164Z,5.09
2023-04-19T23:29:15.208Z,5.10
2023-04-19T23:31:42.358Z,5.04
2023-04-19T23:34:09.525Z,5.03
2023-04-19T23:36:36.610Z,5.04
2023-04-19T23:39:05.019Z,4.91
2023-04-19T23:41:31.825Z,4.85
2023-04-19T23:43:58.588Z,4.78
2023-04-19T23:46:25.839Z,4.75
2023-04-19T23:48:52.830Z,4.76
2023-04-19T23:51:19.684Z,4.64
2023-04-19T23:53:46.541Z,4.45
2023-04-19T23:56:13.564Z,4.44
2023-04-19T23:58:40.474Z,4.51
